Flight Track Log - Related Links

Times and Time Zones

All times are in EDT time to prevent confusion due to time zone crossing. See the CPT8773 flight status page for this flight to view local times or setup timezone preferences in your user account.

Time Position Orientation Groundspeed Altitude Reporting Facility
EDT Latitude Longitude Course Direction KTS MPH feet Rate Location/Type
Fri 09:24:10 AM 42.9808 -106.5122 295° West 114 131 7,800  Level Denver Center
Fri 09:25:11 AM 43.0128 -106.5275 341° North 120 138 8,600 787 Climbing Denver Center
Fri 09:26:12 AM 43.0425 -106.5425 340° North 121 139 9,400 885 Climbing Denver Center
Fri 09:27:13 AM 43.0775 -106.5583 342° North 120 138 10,400 836 Climbing Denver Center
Fri 09:28:00 AM 43.1428 -106.3708 308° West  Level FlightAware Approximate
Fri 09:28:14 AM 43.1036 -106.5736 337° Northwest 114 131 11,100  Level Denver Center
Fri 09:29:00 AM 43.1620 -106.4193 295° West  Level FlightAware Approximate
Fri 09:29:15 AM 43.1364 -106.5750 358° North 118 136 11,800  Level Denver Center
Fri 09:30:16 AM 43.1792 -106.5808 354° North 134 154 12,000 90 Climbing Denver Center
Fri 09:31:29 AM 43.2219 -106.5908 350° North 156 180 12,000 -45 Level Denver Center
Fri 09:32:30 AM 43.2744 -106.6167 340° North 177 204 11,900  Descending Denver Center
Fri 09:33:31 AM 43.2975 -106.6669 302° West 165 190 12,000 49 Climbing Denver Center
Fri 09:34:32 AM 43.3214 -106.7156 304° West 162 186 12,000  Level Denver Center
Fri 09:35:33 AM 43.3514 -106.7694 307° West 160 184 12,000  Level Denver Center
Fri 09:36:34 AM 43.3719 -106.8103 305° West 161 185 12,000  Level Denver Center
Fri 09:37:35 AM 43.4050 -106.8742 305° West 161 185 12,000 51 Level Denver Center
Fri 09:38:32 AM 43.4242 -106.9186 301° West 164 189 12,100  Climbing Salt Lake Center
Fri 09:39:33 AM 43.4519 -106.9689 307° West 163 188 12,000 -49 Descending Salt Lake Center
Fri 09:40:34 AM 43.4803 -107.0258 304° West 161 185 12,000  Level Salt Lake Center
Fri 09:41:35 AM 43.5050 -107.0761 304° West 164 189 12,000  Level Salt Lake Center
Fri 09:42:36 AM 43.5325 -107.1236 309° West 167 192 12,000  Level Salt Lake Center
Fri 09:43:42 AM 43.5619 -107.1778 307° West 160 184 12,000  Level Denver Center
Fri 09:44:43 AM 43.5908 -107.2325 306° West 158 182 12,000  Level Denver Center
Fri 09:45:44 AM 43.6114 -107.2794 301° West 154 177 12,000  Level Denver Center
Fri 09:46:41 AM 43.6342 -107.3256 304° West 152 175 12,000 51 Level Salt Lake Center
Fri 09:47:42 AM 43.6594 -107.3719 307° West 154 177 12,100  Climbing Salt Lake Center
Fri 09:48:43 AM 43.6875 -107.4250 306° West 154 177 12,000 -49 Descending Salt Lake Center
Fri 09:49:45 AM 43.7131 -107.4686 309° West 153 176 12,000  Level Salt Lake Center
Fri 09:50:46 AM 43.7375 -107.5169 305° West 156 180 12,000  Level Salt Lake Center
Fri 09:51:47 AM 43.7656 -107.5725 305° West 157 181 12,000  Level Salt Lake Center
Fri 09:52:48 AM 43.7903 -107.6186 307° West 157 181 12,000  Level Salt Lake Center
Fri 09:53:50 AM 43.8189 -107.6731 306° West 156 180 12,000  Level Salt Lake Center
Fri 09:54:51 AM 43.8442 -107.7200 307° West 157 181 12,000  Level Salt Lake Center
Fri 09:55:52 AM 43.8689 -107.7664 306° West 157 181 12,000  Level Salt Lake Center
Fri 09:56:54 AM 43.8975 -107.8208 306° West 156 180 12,000  Level Salt Lake Center
Fri 09:57:55 AM 43.9219 -107.8672 306° West 156 180 12,000  Level Salt Lake Center
Fri 09:58:56 AM 43.9506 -107.9228 306° West 157 181 12,000  Level Salt Lake Center
Fri 09:59:58 AM 43.9747 -107.9700 305° West 157 181 12,000  Level Salt Lake Center
Fri 10:01:00 AM 44.0000 -108.0156 308° West 156 180 12,000  Level Salt Lake Center
Fri 10:02:01 AM 44.0283 -108.0706 306° West 157 181 12,000  Level Salt Lake Center
Fri 10:03:02 AM 44.0531 -108.1172 306° West 156 180 12,000  Level Salt Lake Center
Fri 10:04:03 AM 44.0806 -108.1742 304° West 157 181 12,000  Level Salt Lake Center
Fri 10:05:05 AM 44.1050 -108.2206 306° West 157 181 12,000 -98 Level Salt Lake Center
Fri 10:06:06 AM 44.1294 -108.2675 306° West 156 180 11,800 -341 Descending Salt Lake Center
Fri 10:07:08 AM 44.1611 -108.3269 307° West 162 186 11,300 -439 Descending Salt Lake Center
Fri 10:08:09 AM 44.1875 -108.3792 305° West 168 193 10,900 -390 Descending Salt Lake Center
Fri 10:09:11 AM 44.2133 -108.4300 305° West 168 193 10,500 -439 Descending Salt Lake Center
Fri 10:10:12 AM 44.2461 -108.4886 308° West 170 196 10,000 -390 Descending Salt Lake Center
Fri 10:11:14 AM 44.2722 -108.5403 305° West 170 196 9,700 -349 Descending Salt Lake Center
Fri 10:11:38 AM 44.2850 -108.5656 305° West 169 194 9,500 -500 Descending Salt Lake Center

Login

Don't have an account? Register now (free) for customized features, flight alerts, and more!